Time,TemperatureF,DewpointF,PressureIn,WindDirection,WindDirectionDegrees,WindSpeedMPH,WindSpeedGustMPH,Humidity,HourlyPrecipIn,Conditions,Clouds,dailyrainin,SoftwareType,DateUTC
2014-03-21 00:05:00,36.4,34.0,30.35,NE,44,0.0,1.0,90,0.00,,,0.00,weatherlink.com 1.10,2014-03-21 07:05:00,
2014-03-21 00:20:00,36.3,34.0,30.35,NNE,27,1.0,1.0,91,0.00,,,0.00,weatherlink.com 1.10,2014-03-21 07:20:00,
2014-03-21 00:35:00,36.6,34.0,30.35,North,11,1.0,2.0,90,0.00,,,0.00,weatherlink.com 1.10,2014-03-21 07:35:00,
2014-03-21 00:50:00,36.3,33.0,30.34,NNE,18,0.0,0.0,89,0.00,,,0.00,weatherlink.com 1.10,2014-03-21 07:50:00,
2014-03-21 01:04:00,36.3,33.0,30.34,North,350,0.0,0.0,89,0.00,,,0.00,weatherlink.com 1.10,2014-03-21 08:04:00,
2014-03-21 01:20:00,36.3,33.0,30.34,NW,316,2.0,3.0,89,0.00,,,0.00,weatherlink.com 1.10,2014-03-21 08:20:00,
2014-03-21 01:35:00,36.6,34.0,30.34,NNE,25,1.0,5.0,89,0.00,,,0.00,weatherlink.com 1.10,2014-03-21 08:35:00,
2014-03-21 01:50:00,36.3,33.0,30.33,NNE,20,1.0,3.0,89,0.00,,,0.00,weatherlink.com 1.10,2014-03-21 08:50:00,
2014-03-21 02:05:00,36.2,33.0,30.33,NNE,26,0.0,2.0,89,0.00,,,0.00,weatherlink.com 1.10,2014-03-21 09:05:00,
2014-03-21 02:20:00,36.1,33.0,30.33,NNW,330,1.0,3.0,89,0.00,,,0.00,weatherlink.com 1.10,2014-03-21 09:20:00,
2014-03-21 02:35:00,35.9,33.0,30.32,North,5,0.0,2.0,89,0.00,,,0.00,weatherlink.com 1.10,2014-03-21 09:35:00,
2014-03-21 02:50:00,36.4,34.0,30.32,NW,314,1.0,3.0,89,0.00,,,0.00,weatherlink.com 1.10,2014-03-21 09:50:00,
2014-03-21 03:05:00,35.9,33.0,30.31,WSW,257,0.0,1.0,89,0.00,,,0.00,weatherlink.com 1.10,2014-03-21 10:05:00,
2014-03-21 03:20:00,35.2,33.0,30.31,NW,321,0.0,3.0,90,0.00,,,0.00,weatherlink.com 1.10,2014-03-21 10:20:00,
2014-03-21 03:35:00,35.5,33.0,30.31,West,281,0.0,2.0,90,0.00,,,0.00,weatherlink.com 1.10,2014-03-21 10:35:00,
2014-03-21 03:50:00,35.6,33.0,30.30,NNW,327,0.0,2.0,90,0.00,,,0.00,weatherlink.com 1.10,2014-03-21 10:50:00,
2014-03-21 04:05:00,35.6,33.0,30.30,NNW,338,1.0,3.0,90,0.00,,,0.00,weatherlink.com 1.10,2014-03-21 11:05:00,
2014-03-21 04:20:00,35.8,33.0,30.30,North,11,1.0,1.0,90,0.00,,,0.00,weatherlink.com 1.10,2014-03-21 11:20:00,
2014-03-21 04:35:00,36.2,33.0,30.29,NW,325,0.0,3.0,89,0.00,,,0.00,weatherlink.com 1.10,2014-03-21 11:35:00,
2014-03-21 04:50:00,36.1,33.0,30.29,NE,54,0.0,1.0,89,0.00,,,0.00,weatherlink.com 1.10,2014-03-21 11:50:00,
2014-03-21 05:05:00,36.1,33.0,30.29,NW,323,0.0,1.0,89,0.00,,,0.00,weatherlink.com 1.10,2014-03-21 12:05:00,
2014-03-21 05:20:00,35.7,33.0,30.29,WNW,291,1.0,3.0,90,0.00,,,0.00,weatherlink.com 1.10,2014-03-21 12:20:00,
2014-03-21 05:35:00,35.4,33.0,30.29,WSW,256,2.0,4.0,90,0.00,,,0.00,weatherlink.com 1.10,2014-03-21 12:35:00,
2014-03-21 05:50:00,35.1,33.0,30.29,West,277,0.0,3.0,91,0.00,,,0.00,weatherlink.com 1.10,2014-03-21 12:50:00,
2014-03-21 06:05:00,34.3,32.0,30.28,West,262,0.0,0.0,91,0.00,,,0.00,weatherlink.com 1.10,2014-03-21 13:05:00,
2014-03-21 06:21:00,33.7,32.0,30.28,SE,124,0.0,0.0,92,0.00,,,0.00,weatherlink.com 1.10,2014-03-21 13:21:00,
2014-03-21 06:35:00,33.2,31.0,30.29,ESE,108,0.0,1.0,93,0.00,,,0.00,weatherlink.com 1.10,2014-03-21 13:35:00,
2014-03-21 06:50:00,33.0,32.0,30.28,East,89,0.0,1.0,94,0.00,,,0.00,weatherlink.com 1.10,2014-03-21 13:50:00,
2014-03-21 07:06:00,32.7,31.0,30.28,ESE,103,0.0,0.0,94,0.00,,,0.00,weatherlink.com 1.10,2014-03-21 14:06:00,
2014-03-21 07:20:00,32.5,31.0,30.28,NNE,30,0.0,2.0,95,0.00,,,0.00,weatherlink.com 1.10,2014-03-21 14:20:00,
2014-03-21 07:36:00,32.4,31.0,30.29,WSW,253,0.0,1.0,95,0.00,,,0.00,weatherlink.com 1.10,2014-03-21 14:36:00,
2014-03-21 07:52:00,32.1,31.0,30.29,NNW,328,0.0,3.0,95,0.00,,,0.00,weatherlink.com 1.10,2014-03-21 14:52:00,
2014-03-21 08:05:00,32.5,31.0,30.29,West,262,0.0,3.0,95,0.00,,,0.00,weatherlink.com 1.10,2014-03-21 15:05:00,
2014-03-21 08:20:00,33.0,32.0,30.29,West,262,0.0,0.0,95,0.00,,,0.00,weatherlink.com 1.10,2014-03-21 15:20:00,
2014-03-21 08:35:00,33.9,33.0,30.28,West,263,0.0,0.0,95,0.00,,,0.00,weatherlink.com 1.10,2014-03-21 15:35:00,
2014-03-21 08:51:00,34.7,33.0,30.28,NW,318,1.0,3.0,94,0.00,,,0.00,weatherlink.com 1.10,2014-03-21 15:51:00,
2014-03-21 09:05:00,35.7,34.0,30.28,West,281,0.0,3.0,94,0.00,,,0.00,weatherlink.com 1.10,2014-03-21 16:05:00,
2014-03-21 09:21:00,37.0,35.0,30.28,SSW,211,0.0,2.0,92,0.00,,,0.00,weatherlink.com 1.10,2014-03-21 16:21:00,
2014-03-21 09:36:00,38.0,35.0,30.28,WSW,257,4.0,5.0,90,0.00,,,0.00,weatherlink.com 1.10,2014-03-21 16:36:00,
2014-03-21 09:50:00,38.3,36.0,30.28,West,269,3.0,6.0,90,0.00,,,0.00,weatherlink.com 1.10,2014-03-21 16:50:00,
2014-03-21 10:06:00,37.9,35.0,30.28,West,264,2.0,5.0,90,0.00,,,0.00,weatherlink.com 1.10,2014-03-21 17:06:00,
2014-03-21 10:20:00,37.3,35.0,30.28,WNW,294,1.0,5.0,91,0.00,,,0.00,weatherlink.com 1.10,2014-03-21 17:20:00,
2014-03-21 10:36:00,39.2,37.0,30.28,West,260,3.0,5.0,92,0.00,,,0.00,weatherlink.com 1.10,2014-03-21 17:36:00,
2014-03-21 10:51:00,40.9,37.0,30.28,West,274,1.0,7.0,87,0.00,,,0.00,weatherlink.com 1.10,2014-03-21 17:51:00,
2014-03-21 11:06:00,42.1,38.0,30.28,WNW,297,0.0,7.0,86,0.00,,,0.00,weatherlink.com 1.10,2014-03-21 18:06:00,
2014-03-21 11:21:00,42.7,38.0,30.28,WNW,296,4.0,7.0,84,0.00,,,0.00,weatherlink.com 1.10,2014-03-21 18:21:00,
2014-03-21 11:37:00,43.6,39.0,30.27,West,260,5.0,7.0,83,0.00,,,0.00,weatherlink.com 1.10,2014-03-21 18:37:00,
2014-03-21 11:51:00,44.2,39.0,30.28,WNW,286,6.0,10.0,82,0.00,,,0.00,weatherlink.com 1.10,2014-03-21 18:51:00,
2014-03-21 12:06:00,45.5,39.0,30.27,West,281,4.0,12.0,78,0.00,,,0.00,weatherlink.com 1.10,2014-03-21 19:06:00,
2014-03-21 12:21:00,46.5,39.0,30.27,WNW,289,4.0,12.0,75,0.00,,,0.00,weatherlink.com 1.10,2014-03-21 19:21:00,
2014-03-21 12:36:00,47.6,39.0,30.27,West,277,6.0,12.0,73,0.00,,,0.00,weatherlink.com 1.10,2014-03-21 19:36:00,
2014-03-21 12:51:00,48.9,40.0,30.26,WSW,241,6.0,10.0,71,0.00,,,0.00,weatherlink.com 1.10,2014-03-21 19:51:00,
2014-03-21 13:06:00,49.3,40.0,30.26,NW,313,3.0,14.0,70,0.00,,,0.00,weatherlink.com 1.10,2014-03-21 20:06:00,
2014-03-21 13:21:00,49.2,39.0,30.26,West,266,9.0,14.0,68,0.00,,,0.00,weatherlink.com 1.10,2014-03-21 20:21:00,
2014-03-21 13:36:00,49.8,39.0,30.25,WNW,291,7.0,12.0,67,0.00,,,0.00,weatherlink.com 1.10,2014-03-21 20:36:00,
2014-03-21 13:52:00,50.9,39.0,30.25,WNW,291,4.0,12.0,65,0.00,,,0.00,weatherlink.com 1.10,2014-03-21 20:52:00,
2014-03-21 14:07:00,51.4,39.0,30.24,NW,322,7.0,14.0,63,0.00,,,0.00,weatherlink.com 1.10,2014-03-21 21:07:00,
2014-03-21 14:22:00,51.6,38.0,30.24,NW,305,4.0,14.0,60,0.00,,,0.00,weatherlink.com 1.10,2014-03-21 21:22:00,
2014-03-21 14:36:00,51.6,37.0,30.24,WNW,300,5.0,14.0,58,0.00,,,0.00,weatherlink.com 1.10,2014-03-21 21:36:00,
2014-03-21 14:51:00,51.8,36.0,30.23,West,278,6.0,14.0,56,0.00,,,0.00,weatherlink.com 1.10,2014-03-21 21:51:00,
2014-03-21 15:06:00,52.6,37.0,30.23,WNW,300,4.0,12.0,56,0.00,,,0.00,weatherlink.com 1.10,2014-03-21 22:06:00,
2014-03-21 15:22:00,52.7,37.0,30.23,WSW,238,6.0,12.0,56,0.00,,,0.00,weatherlink.com 1.10,2014-03-21 22:22:00,
2014-03-21 15:36:00,52.2,37.0,30.23,NNW,333,6.0,13.0,56,0.00,,,0.00,weatherlink.com 1.10,2014-03-21 22:36:00,
2014-03-21 15:51:00,52.2,36.0,30.22,WNW,285,3.0,13.0,55,0.00,,,0.00,weatherlink.com 1.10,2014-03-21 22:51:00,
2014-03-21 16:07:00,52.5,36.0,30.22,WSW,256,19.0,19.0,53,0.00,,,0.00,weatherlink.com 1.10,2014-03-21 23:07:00,
2014-03-21 16:25:00,52.8,35.0,30.23,West,259,5.0,16.0,52,0.00,,,0.00,weatherlink.com 1.10,2014-03-21 23:25:00,
2014-03-21 16:37:00,52.9,35.0,30.22,West,271,8.0,14.0,52,0.00,,,0.00,weatherlink.com 1.10,2014-03-21 23:37:00,
2014-03-21 16:52:00,52.9,35.0,30.22,West,266,4.0,15.0,50,0.00,,,0.00,weatherlink.com 1.10,2014-03-21 23:52:00,
2014-03-21 17:07:00,53.4,34.0,30.22,NW,314,5.0,13.0,49,0.00,,,0.00,weatherlink.com 1.10,2014-03-22 00:07:00,
2014-03-21 17:22:00,53.2,34.0,30.22,West,279,3.0,10.0,48,0.00,,,0.00,weatherlink.com 1.10,2014-03-22 00:22:00,
2014-03-21 17:37:00,52.8,33.0,30.21,NW,324,9.0,17.0,48,0.00,,,0.00,weatherlink.com 1.10,2014-03-22 00:37:00,
2014-03-21 17:52:00,52.8,33.0,30.22,SW,236,13.0,14.0,48,0.00,,,0.00,weatherlink.com 1.10,2014-03-22 00:52:00,
2014-03-21 18:07:00,52.4,34.0,30.22,NW,324,1.0,12.0,49,0.00,,,0.00,weatherlink.com 1.10,2014-03-22 01:07:00,
2014-03-21 18:22:00,52.0,33.0,30.22,NNE,16,5.0,10.0,49,0.00,,,0.00,weatherlink.com 1.10,2014-03-22 01:22:00,
2014-03-21 18:37:00,51.3,33.0,30.23,NW,322,3.0,14.0,50,0.00,,,0.00,weatherlink.com 1.10,2014-03-22 01:37:00,
2014-03-21 18:52:00,50.6,33.0,30.23,WNW,298,0.0,11.0,51,0.00,,,0.00,weatherlink.com 1.10,2014-03-22 01:52:00,
2014-03-21 19:07:00,49.8,33.0,30.23,NNW,332,6.0,9.0,53,0.00,,,0.00,weatherlink.com 1.10,2014-03-22 02:07:00,
2014-03-21 19:22:00,48.5,33.0,30.23,NNW,328,0.0,7.0,56,0.00,,,0.00,weatherlink.com 1.10,2014-03-22 02:22:00,
2014-03-21 19:37:00,47.2,33.0,30.23,NE,39,0.0,6.0,58,0.00,,,0.00,weatherlink.com 1.10,2014-03-22 02:37:00,
2014-03-21 19:52:00,46.2,33.0,30.23,North,349,2.0,6.0,60,0.00,,,0.00,weatherlink.com 1.10,2014-03-22 02:52:00,
2014-03-21 20:07:00,45.5,33.0,30.23,NW,318,2.0,5.0,62,0.00,,,0.00,weatherlink.com 1.10,2014-03-22 03:07:00,
2014-03-21 20:22:00,44.9,33.0,30.24,North,8,2.0,6.0,63,0.00,,,0.00,weatherlink.com 1.10,2014-03-22 03:22:00,
2014-03-21 20:37:00,44.5,32.0,30.24,NE,44,2.0,6.0,63,0.00,,,0.00,weatherlink.com 1.10,2014-03-22 03:37:00,
2014-03-21 20:52:00,44.1,33.0,30.24,WNW,298,0.0,7.0,64,0.00,,,0.00,weatherlink.com 1.10,2014-03-22 03:52:00,
2014-03-21 21:07:00,43.7,32.0,30.24,NNW,346,3.0,4.0,64,0.00,,,0.00,weatherlink.com 1.10,2014-03-22 04:07:00,
2014-03-21 21:22:00,43.4,32.0,30.25,NW,314,1.0,5.0,65,0.00,,,0.00,weatherlink.com 1.10,2014-03-22 04:22:00,
2014-03-21 21:37:00,43.1,32.0,30.25,NNW,345,1.0,6.0,65,0.00,,,0.00,weatherlink.com 1.10,2014-03-22 04:37:00,
2014-03-21 21:52:00,43.2,32.0,30.25,NW,321,1.0,5.0,65,0.00,,,0.00,weatherlink.com 1.10,2014-03-22 04:52:00,
2014-03-21 22:07:00,43.1,32.0,30.25,West,280,0.0,5.0,65,0.00,,,0.00,weatherlink.com 1.10,2014-03-22 05:07:00,
2014-03-21 22:22:00,42.0,32.0,30.25,NW,323,0.0,5.0,68,0.00,,,0.00,weatherlink.com 1.10,2014-03-22 05:22:00,
2014-03-21 22:37:00,41.4,32.0,30.25,NNE,15,0.0,4.0,70,0.00,,,0.00,weatherlink.com 1.10,2014-03-22 05:37:00,
2014-03-21 22:52:00,40.9,32.0,30.25,WNW,294,0.0,3.0,70,0.00,,,0.00,weatherlink.com 1.10,2014-03-22 05:52:00,
2014-03-21 23:07:00,40.6,32.0,30.26,West,280,0.0,4.0,71,0.00,,,0.00,weatherlink.com 1.10,2014-03-22 06:07:00,
2014-03-21 23:22:00,40.4,32.0,30.26,NW,326,0.0,1.0,71,0.00,,,0.00,weatherlink.com 1.10,2014-03-22 06:22:00,
2014-03-21 23:37:00,39.6,32.0,30.26,North,354,0.0,4.0,73,0.00,,,0.00,weatherlink.com 1.10,2014-03-22 06:37:00,
2014-03-21 23:52:00,38.9,32.0,30.26,ENE,75,0.0,1.0,76,0.00,,,0.00,weatherlink.com 1.10,2014-03-22 06:52:00,